KEKN/EKN METAR and TAF weather

Enter ICAO airport designator
Station Type Date Time Source
KEKN METAR 2018/10/16 20:51 UTC NOAA

KEKN 162051Z AUTO 24004KT 10SM CLR 12/03 A3013 RMK AO2 SLP212 T01220028 58018 TSNO


Station Type Date Time Source
KEKN Decoded METAR 2018/10/16 20:51 UTC NOAA

JENNINGS RANDOLPH FIELD, WV, United States (KEKN) 38-53N 079-51W 603M
Oct 16, 2018 - 04:51 PM EDT / 2018.10.16 2051 UTC
Wind: from the WSW (240 degrees) at 5 MPH (4 KT):0
Visibility: 10 mile(s):0
Sky conditions: clear
Temperature: 54.0 F (12.2 C)
Dew Point: 37.0 F (2.8 C)
Relative Humidity: 52%
Pressure (altimeter): 30.13 in. Hg (1020 hPa)
Pressure tendency: 0.05 inches (1.8 hPa) lower than three hours ago
ob: KEKN 162051Z AUTO 24004KT 10SM CLR 12/03 A3013 RMK AO2 SLP212 T01220028 58018 TSNO
cycle: 21

Station Type Date Time Source
KEKN TAF 2018/10/16 18:42 UTC NOAA

TAF KEKN 161740Z 1618/1718 VRB03KT P6SM SCT100
FM162000 VRB03KT P6SM SCT250
FM170800 26006KT 6SM BR FEW250
FM171400 27011G19KT P6SM SKC


Example: see airport list